Portada
METAR-TAF:

METAR-TAF

Aeroports :

Fort Pierce, Florida, Estats Units d'Amèrica

latitud: 27-29-53N, longitud: 080-22-36W, altitud: 8 m

Observació

L'informe es va fer fa 51 minuts, a les 10:53 UTC
Vent 3 kt del Oest
Temperatura 7°C
Humitat 87%
Pressió 1025 hPa
Visibilitat: 16.1 km
Cel clar

METAR: KFPR 191053Z AUTO 28003KT 10SM CLR 07/05 A3027 RMK AO2 SLP249 T00670050

Hora: 06:44 (11:44 UTC)

Pronòstic

L'informe es va fer fa 24 minuts, a les 11:20 UTC
Pronòstic vàlid del 19 a les 12 UTC al 20 a les 12 UTC
Vent 3 kt amb direcció variable
Visibilitat: 10 km
Cel clar
A partir de les 19 a les 1800 UTC
Vent 8 kt del Est
Visibilitat: 10 km
Escasses núvols a una alçada de 4000 ft
A partir de les 19 a les 2300 UTC
Vent 3 kt amb direcció variable
Visibilitat: 10 km
Escasses núvols a una alçada de 25000 ft

TAF: KFPR 191120Z 1912/2012 VRB03KT P6SM SKC FM191800 08008KT P6SM FEW040 FM192300 VRB03KT P6SM FEW250

Observacions i pronòstics meteorològics de més de 4000 aeroports (METAR i TAF).

Les estacions disponibles són els punts grocs i vermells al mapa.

Posi el ratolí al punt desitjat per veure el nom de l'estació.

Feu clic per veure les observacions i els pronòstics meteorològics.

Per canviar el mapa: feu clic els botons verds amb una creu de color negre per apropar; al botó verd amb un guió per allunyar la imatge; o en les fletxes verdes per a mapes adjacents.


METAR-TAF: